Roatan, Honduras

11:32 PM CST on April 23, 2017 (GMT -0600)
Roatan - West Bay Beach | | Change Station

Elev 0 ft 16.28 °N, 86.60 °W | Updated 28 seconds ago

Clear
Clear
79.3 °F
Feels Like 83 °F
N
0.0
Wind Variable Wind from WSW

Today
High -- | Low -- °F
--% Chance of Precip.
Yesterday
High -- | Low -- °F
Precip. -- in
Pressure 29.89 in
Visibility 6.2 miles
Clouds Few 3000 ft
Heat Index 83 °F
Dew Point 71 °F
Humidity 78%
Rainfall 0.00 in
Snow Depth Not available.
5:25 AM 6:03 PM
Waning Crescent, 7% visible
METAR MHLC 240500Z 00000KT 9999 FEW030 24/22 Q1012 A2989 NOSIG
Pressure 29.89 in
Visibility 6.2 miles
Clouds Few 3000 ft
Heat Index 83 °F
Dew Point 71 °F
Humidity 78%
Rainfall 0.00 in
Snow Depth Not available.
5:25 AM 6:03 PM
Waning Crescent, 7% visible
METAR MHLC 240500Z 00000KT 9999 FEW030 24/22 Q1012 A2989 NOSIG

Get Severe Weather Alerts

Thanks for signing up!

Be on the lookout for a verification email in your inbox.

You'll start receiving the daily forecast at 8 AM.

×

10-Day Weather Forecast

No radar image for this location.
×

Almanac

Astronomy

Apr. 23, 2017 Rise Set
Actual Time
Civil Twilight
Nautical Twilight
Astronomical Twilight
Moon
Length of Visible Light
Length of Day
Tomorrow will be .
, % of the Moon is Illuminated

Today's Extremes

Country Highs Country Lows

Community

WunderPhotos

WunderBlog® & News

Nearby

Air Quality

  Air Quality AQ Index Pollutant
Not available.

Snow Depth

Station Depth Elevation

Earthquake Activity

City Distance Mag. Time & Date
Minimum magnitude displayed is 2.5.

Coastal Water Temperatures

Place Temperature

Stations

Nearby Weather Stations

Station Location Temp. Windchill Dew Point Humidity Wind Precip. Elev Updated Type